createdAt,value
2022-09-07T00:01:33.883Z,63.20
2022-09-07T00:04:39.520Z,63.20
2022-09-07T00:07:47.430Z,63.20
2022-09-07T00:10:56.883Z,63.20
2022-09-07T00:14:02.275Z,63.20
2022-09-07T00:17:12.988Z,63.20
2022-09-07T00:20:22.739Z,63.20
2022-09-07T00:23:31.572Z,63.20
2022-09-07T00:26:38.999Z,63.20
2022-09-07T00:29:44.954Z,63.20
2022-09-07T00:32:55.215Z,63.20
2022-09-07T00:36:02.649Z,63.20
2022-09-07T00:39:10.160Z,63.20
2022-09-07T00:42:17.661Z,63.20
2022-09-07T00:45:25.619Z,63.20
2022-09-07T00:48:38.849Z,63.20
2022-09-07T00:51:51.112Z,63.20
2022-09-07T00:55:02.994Z,63.20
2022-09-07T00:58:11.682Z,63.30
2022-09-07T01:01:20.699Z,63.30
2022-09-07T01:04:29.597Z,63.30
2022-09-07T01:07:37.325Z,63.30
2022-09-07T01:10:47.059Z,63.20
2022-09-07T01:13:54.211Z,63.20
2022-09-07T01:17:09.165Z,63.20
2022-09-07T01:20:51.109Z,63.20
2022-09-07T01:24:24.858Z,63.20
2022-09-07T01:28:12.090Z,63.20
2022-09-07T01:31:28.967Z,63.20
2022-09-07T01:34:36.420Z,63.20
2022-09-07T01:37:55.031Z,63.20
2022-09-07T01:41:10.571Z,63.20
2022-09-07T01:44:24.961Z,63.20
2022-09-07T01:47:36.242Z,63.20
2022-09-07T01:50:48.949Z,63.20
2022-09-07T01:53:58.900Z,63.20
2022-09-07T01:57:07.675Z,63.10
2022-09-07T02:00:21.804Z,63.20
2022-09-07T02:03:34.702Z,63.30
2022-09-07T02:06:46.000Z,63.20
2022-09-07T02:09:55.987Z,63.30
2022-09-07T02:13:10.058Z,63.20
2022-09-07T02:16:25.144Z,63.20
2022-09-07T02:19:33.391Z,63.20
2022-09-07T02:22:46.738Z,63.20
2022-09-07T02:25:59.128Z,63.20
2022-09-07T02:29:09.454Z,63.20
2022-09-07T02:32:19.918Z,63.10
2022-09-07T02:35:27.491Z,63.10
2022-09-07T02:38:35.434Z,63.10
2022-09-07T02:41:42.930Z,63.10
2022-09-07T02:44:50.858Z,63.10
2022-09-07T02:48:19.018Z,63.10
2022-09-07T02:51:39.451Z,63.10
2022-09-07T02:54:58.291Z,63.00
2022-09-07T02:58:18.238Z,63.00
2022-09-07T03:01:34.390Z,63.00
2022-09-07T03:04:50.208Z,63.00
2022-09-07T03:08:02.220Z,63.10
2022-09-07T03:11:10.639Z,63.10
2022-09-07T03:14:17.957Z,63.10
2022-09-07T03:17:25.535Z,63.10
2022-09-07T03:20:35.915Z,63.10
2022-09-07T03:23:43.250Z,63.10
2022-09-07T03:26:51.631Z,63.10
2022-09-07T03:29:57.176Z,63.10
2022-09-07T03:33:04.664Z,63.10
2022-09-07T03:36:13.353Z,63.10
2022-09-07T03:39:24.004Z,63.00
2022-09-07T03:42:31.357Z,63.00
2022-09-07T03:45:38.636Z,63.10
2022-09-07T03:48:46.151Z,63.10
2022-09-07T03:51:54.269Z,63.10
2022-09-07T03:55:01.830Z,63.10
2022-09-07T03:58:11.691Z,63.10
2022-09-07T04:01:18.905Z,63.10
2022-09-07T04:04:26.448Z,63.10
2022-09-07T04:07:36.620Z,63.00
2022-09-07T04:10:44.729Z,63.00
2022-09-07T04:13:50.046Z,63.00
2022-09-07T04:16:57.463Z,63.00
2022-09-07T04:20:05.249Z,63.00
2022-09-07T04:23:17.546Z,63.00
2022-09-07T04:26:26.733Z,63.10
2022-09-07T04:29:34.270Z,63.10
2022-09-07T04:32:40.048Z,63.10
2022-09-07T04:35:47.442Z,63.10
2022-09-07T04:39:02.650Z,63.10
2022-09-07T04:42:12.734Z,63.10
2022-09-07T04:45:18.111Z,63.10
2022-09-07T04:48:27.951Z,63.10
2022-09-07T04:51:35.546Z,63.10
2022-09-07T04:54:46.156Z,63.10
2022-09-07T04:57:53.635Z,63.10
2022-09-07T05:01:03.700Z,63.10
2022-09-07T05:04:11.657Z,63.10
2022-09-07T05:07:17.115Z,63.10
2022-09-07T05:10:27.491Z,63.10
2022-09-07T05:13:33.379Z,63.20
2022-09-07T05:16:40.722Z,63.20
2022-09-07T05:19:48.519Z,63.20
2022-09-07T05:22:59.788Z,63.20
2022-09-07T05:26:11.076Z,63.10
2022-09-07T05:32:48.432Z,63.10
2022-09-07T05:36:00.284Z,63.10
2022-09-07T05:39:11.140Z,63.10
2022-09-07T05:42:19.557Z,63.00
2022-09-07T05:45:27.349Z,63.00
2022-09-07T05:48:33.216Z,63.00
2022-09-07T05:51:41.416Z,63.00
2022-09-07T05:54:47.532Z,63.00
2022-09-07T05:57:58.513Z,63.00
2022-09-07T06:01:08.602Z,63.00
2022-09-07T06:04:16.341Z,63.00
2022-09-07T06:07:23.941Z,63.00
2022-09-07T06:10:46.881Z,63.00
2022-09-07T06:13:57.203Z,63.00
2022-09-07T06:17:04.539Z,63.10
2022-09-07T06:20:11.216Z,63.10
2022-09-07T06:23:18.761Z,63.00
2022-09-07T06:26:26.370Z,63.10
2022-09-07T06:29:36.742Z,63.10
2022-09-07T06:35:57.543Z,63.10
2022-09-07T06:39:04.387Z,63.00
2022-09-07T06:42:11.954Z,63.10
2022-09-07T06:45:22.035Z,63.10
2022-09-07T06:48:30.250Z,63.10
2022-09-07T06:51:38.064Z,63.10
2022-09-07T06:55:01.245Z,63.10
2022-09-07T06:58:09.196Z,63.10
2022-09-07T07:01:22.308Z,63.00
2022-09-07T07:04:29.858Z,63.00
2022-09-07T07:07:38.123Z,63.00
2022-09-07T07:10:43.942Z,63.00
2022-09-07T07:13:51.367Z,63.00
2022-09-07T07:16:59.403Z,63.00
2022-09-07T07:20:07.533Z,63.00
2022-09-07T07:23:15.503Z,63.00
2022-09-07T07:26:22.737Z,63.00
2022-09-07T07:29:30.212Z,63.00
2022-09-07T07:32:41.039Z,63.00
2022-09-07T07:35:46.519Z,63.00
2022-09-07T07:38:58.868Z,63.00
2022-09-07T07:42:06.586Z,63.00
2022-09-07T07:48:43.041Z,62.90
2022-09-07T07:58:48.821Z,63.00
2022-09-07T08:01:56.563Z,63.00
2022-09-07T08:05:05.177Z,63.00
2022-09-07T08:08:12.747Z,63.00
2022-09-07T08:11:22.296Z,63.00
2022-09-07T08:14:29.601Z,63.10
2022-09-07T08:17:36.859Z,63.00
2022-09-07T08:20:47.268Z,63.10
2022-09-07T08:23:54.923Z,63.00
2022-09-07T08:27:00.226Z,63.00
2022-09-07T08:30:08.578Z,63.00
2022-09-07T08:33:14.150Z,63.00
2022-09-07T08:36:25.242Z,62.90
2022-09-07T08:39:33.784Z,62.90
2022-09-07T08:42:52.115Z,62.90
2022-09-07T08:46:06.660Z,62.80
2022-09-07T08:49:19.521Z,62.80
2022-09-07T08:52:32.386Z,62.90
2022-09-07T08:55:43.477Z,62.70
2022-09-07T08:58:53.503Z,62.60
2022-09-07T09:05:39.245Z,62.70
2022-09-07T09:09:05.749Z,62.60
2022-09-07T09:12:20.992Z,62.60
2022-09-07T09:15:33.049Z,62.60
2022-09-07T09:18:54.026Z,62.70
2022-09-07T09:22:13.956Z,62.70
2022-09-07T09:25:35.345Z,62.70
2022-09-07T09:28:41.850Z,62.80
2022-09-07T09:31:49.667Z,62.90
2022-09-07T09:35:05.185Z,63.00
2022-09-07T09:38:32.370Z,63.00
2022-09-07T09:41:42.871Z,63.00
2022-09-07T09:44:48.462Z,63.00
2022-09-07T09:48:00.722Z,63.10
2022-09-07T09:54:42.767Z,63.00
2022-09-07T10:01:28.000Z,63.10
2022-09-07T10:04:37.484Z,63.10
2022-09-07T10:07:55.520Z,63.10
2022-09-07T10:11:05.970Z,63.10
2022-09-07T10:14:21.569Z,63.10
2022-09-07T10:17:33.667Z,63.00
2022-09-07T10:20:41.598Z,63.10
2022-09-07T10:23:49.183Z,63.10
2022-09-07T10:26:58.109Z,63.00
2022-09-07T10:30:16.468Z,63.00
2022-09-07T10:33:29.982Z,62.90
2022-09-07T10:36:45.628Z,62.80
2022-09-07T10:40:05.425Z,62.80
2022-09-07T10:43:25.747Z,62.80
2022-09-07T10:46:57.337Z,62.80
2022-09-07T10:50:26.919Z,62.70
2022-09-07T10:54:30.080Z,62.70
2022-09-07T10:57:35.841Z,62.60
2022-09-07T11:00:54.856Z,62.60
2022-09-07T11:04:23.986Z,62.80
2022-09-07T11:07:50.925Z,62.90
2022-09-07T11:11:09.325Z,62.90
2022-09-07T11:14:21.387Z,62.90
2022-09-07T11:17:32.154Z,62.90
2022-09-07T11:20:51.088Z,62.90
2022-09-07T11:24:04.056Z,62.80
2022-09-07T11:27:19.731Z,62.80
2022-09-07T11:30:35.817Z,62.70
2022-09-07T11:37:39.966Z,62.50
2022-09-07T11:41:06.575Z,62.60
2022-09-07T11:44:22.289Z,62.60
2022-09-07T11:47:39.723Z,62.60
2022-09-07T11:50:54.542Z,62.60
2022-09-07T11:54:19.626Z,62.50
2022-09-07T11:57:46.805Z,62.50
2022-09-07T12:01:03.257Z,62.50
2022-09-07T12:04:29.979Z,62.50
2022-09-07T12:08:05.513Z,62.60
2022-09-07T12:11:37.522Z,62.60
2022-09-07T12:15:04.071Z,62.50
2022-09-07T12:18:25.157Z,62.50
2022-09-07T12:21:42.506Z,62.50
2022-09-07T12:24:53.879Z,62.50
2022-09-07T12:28:05.065Z,62.50
2022-09-07T12:32:52.719Z,62.50
2022-09-07T12:35:40.723Z,62.60
2022-09-07T12:39:06.429Z,62.60
2022-09-07T12:42:36.735Z,62.70
2022-09-07T12:45:56.522Z,62.70
2022-09-07T12:49:09.794Z,62.80
2022-09-07T12:52:38.738Z,62.80
2022-09-07T12:56:17.243Z,62.80
2022-09-07T12:59:45.243Z,62.90
2022-09-07T13:07:19.740Z,63.00
2022-09-07T13:10:33.687Z,63.10
2022-09-07T13:17:43.821Z,63.20
2022-09-07T13:21:32.620Z,63.30
2022-09-07T13:24:56.607Z,63.30
2022-09-07T13:28:06.312Z,63.30
2022-09-07T13:31:28.856Z,63.20
2022-09-07T13:34:53.402Z,63.20
2022-09-07T13:38:05.732Z,63.20
2022-09-07T13:41:18.831Z,63.20
2022-09-07T13:44:28.113Z,63.20
2022-09-07T13:47:44.032Z,63.20
2022-09-07T13:51:02.163Z,63.20
2022-09-07T13:54:22.766Z,63.20
2022-09-07T13:57:34.629Z,63.20
2022-09-07T14:00:54.409Z,63.20
2022-09-07T14:04:06.824Z,63.20
2022-09-07T14:07:18.451Z,63.30
2022-09-07T14:10:29.984Z,63.50
2022-09-07T14:13:35.337Z,63.50
2022-09-07T14:16:44.492Z,63.50
2022-09-07T14:19:52.521Z,63.40
2022-09-07T14:22:59.875Z,63.40
2022-09-07T14:26:18.996Z,63.40
2022-09-07T14:29:30.361Z,63.50
2022-09-07T14:32:36.395Z,63.60
2022-09-07T14:35:44.603Z,63.60
2022-09-07T14:39:08.250Z,63.70
2022-09-07T14:42:24.615Z,63.60
2022-09-07T14:45:37.797Z,63.70
2022-09-07T14:48:46.568Z,63.70
2022-09-07T14:51:57.238Z,63.70
2022-09-07T14:55:03.816Z,63.70
2022-09-07T14:58:24.938Z,63.70
2022-09-07T15:01:38.351Z,63.60
2022-09-07T15:04:46.041Z,63.50
2022-09-07T15:07:55.666Z,63.60
2022-09-07T15:14:36.369Z,63.50
2022-09-07T15:17:44.412Z,63.50
2022-09-07T15:20:52.909Z,63.50
2022-09-07T15:23:59.916Z,63.40
2022-09-07T15:27:22.003Z,63.40
2022-09-07T15:30:33.362Z,63.40
2022-09-07T15:33:39.709Z,63.50
2022-09-07T15:36:50.620Z,63.50
2022-09-07T15:39:56.457Z,63.60
2022-09-07T15:43:13.990Z,63.50
2022-09-07T15:46:29.426Z,63.60
2022-09-07T15:49:35.290Z,63.60
2022-09-07T15:52:46.176Z,63.60
2022-09-07T15:55:57.285Z,63.70
2022-09-07T15:59:04.782Z,63.80
2022-09-07T16:05:44.435Z,63.90
2022-09-07T16:08:52.098Z,63.90
2022-09-07T16:13:00.191Z,64.00
2022-09-07T16:15:27.091Z,64.00
2022-09-07T16:18:38.167Z,64.00
2022-09-07T16:21:43.945Z,63.90
2022-09-07T16:24:52.833Z,63.90
2022-09-07T16:28:00.275Z,63.90
2022-09-07T16:31:09.981Z,63.80
2022-09-07T16:34:21.607Z,63.80
2022-09-07T16:37:27.061Z,63.80
2022-09-07T16:40:34.610Z,63.90
2022-09-07T16:43:39.902Z,63.80
2022-09-07T16:46:47.813Z,63.80
2022-09-07T16:49:57.959Z,63.80
2022-09-07T16:53:03.242Z,63.80
2022-09-07T16:56:11.831Z,63.80
2022-09-07T16:59:21.822Z,63.70
2022-09-07T17:02:31.971Z,63.80
2022-09-07T17:05:44.838Z,63.80
2022-09-07T17:08:50.725Z,63.70
2022-09-07T17:11:58.458Z,63.70
2022-09-07T17:15:09.344Z,63.70
2022-09-07T17:18:15.649Z,63.70
2022-09-07T17:21:26.264Z,63.70
2022-09-07T17:24:33.639Z,63.70
2022-09-07T17:27:43.902Z,63.80
2022-09-07T17:30:51.893Z,63.70
2022-09-07T17:34:02.342Z,63.70
2022-09-07T17:37:10.707Z,63.80
2022-09-07T17:40:18.418Z,63.80
2022-09-07T17:43:45.248Z,63.80
2022-09-07T17:46:51.226Z,63.80
2022-09-07T17:49:58.584Z,63.80
2022-09-07T17:53:08.756Z,63.80
2022-09-07T17:56:18.163Z,63.80
2022-09-07T18:02:53.983Z,63.80
2022-09-07T18:06:02.098Z,63.80
2022-09-07T18:09:10.550Z,63.90
2022-09-07T18:12:18.227Z,63.90
2022-09-07T18:15:24.190Z,63.90
2022-09-07T18:18:32.250Z,63.90
2022-09-07T18:21:41.220Z,63.90
2022-09-07T18:24:51.955Z,63.90
2022-09-07T18:31:26.330Z,63.80
2022-09-07T18:34:34.197Z,63.70
2022-09-07T18:37:40.031Z,63.70
2022-09-07T18:40:51.107Z,63.70
2022-09-07T18:43:56.637Z,63.70
2022-09-07T18:47:05.407Z,63.70
2022-09-07T18:50:11.619Z,63.60
2022-09-07T18:53:18.925Z,63.70
2022-09-07T18:56:27.182Z,63.70
2022-09-07T18:59:34.615Z,63.70
2022-09-07T19:02:42.388Z,63.70
2022-09-07T19:05:50.612Z,63.70
2022-09-07T19:09:00.023Z,63.60
2022-09-07T19:12:10.623Z,63.70
2022-09-07T19:15:18.334Z,63.70
2022-09-07T19:18:25.581Z,63.70
2022-09-07T19:21:34.752Z,63.80
2022-09-07T19:24:42.119Z,63.80
2022-09-07T19:27:52.843Z,63.70
2022-09-07T19:30:58.416Z,63.70
2022-09-07T19:34:06.834Z,63.90
2022-09-07T19:37:16.343Z,63.80
2022-09-07T19:40:21.863Z,63.90
2022-09-07T19:43:34.352Z,63.90
2022-09-07T19:46:41.781Z,63.80
2022-09-07T19:49:49.544Z,63.80
2022-09-07T19:52:56.981Z,63.90
2022-09-07T19:56:09.882Z,63.80
2022-09-07T19:59:18.895Z,63.60
2022-09-07T20:02:26.885Z,63.70
2022-09-07T20:05:32.289Z,63.70
2022-09-07T20:08:40.506Z,63.60
2022-09-07T20:11:48.257Z,63.60
2022-09-07T20:14:58.317Z,63.70
2022-09-07T20:18:05.631Z,63.60
2022-09-07T20:21:14.660Z,63.70
2022-09-07T20:24:22.917Z,63.60
2022-09-07T20:27:36.053Z,63.60
2022-09-07T20:30:48.343Z,63.60
2022-09-07T20:33:55.908Z,63.60
2022-09-07T20:37:03.333Z,63.60
2022-09-07T20:40:12.001Z,63.60
2022-09-07T20:43:19.335Z,63.70
2022-09-07T20:46:30.654Z,63.70
2022-09-07T20:49:38.182Z,63.70
2022-09-07T20:52:45.666Z,63.70
2022-09-07T20:55:51.207Z,63.70
2022-09-07T20:59:00.624Z,63.70
2022-09-07T21:02:12.408Z,63.70
2022-09-07T21:05:17.993Z,63.90
2022-09-07T21:08:25.566Z,63.70
2022-09-07T21:11:32.574Z,63.80
2022-09-07T21:14:40.426Z,63.70
2022-09-07T21:17:48.750Z,63.70
2022-09-07T21:21:18.757Z,63.70
2022-09-07T21:24:26.288Z,63.70
2022-09-07T21:27:38.787Z,63.70
2022-09-07T21:30:46.951Z,63.60
2022-09-07T21:34:00.857Z,63.50
2022-09-07T21:37:06.430Z,63.60
2022-09-07T21:40:14.412Z,63.60
2022-09-07T21:43:22.277Z,63.60
2022-09-07T21:46:29.005Z,63.70
2022-09-07T21:49:39.249Z,63.70
2022-09-07T21:52:44.670Z,63.70
2022-09-07T21:55:58.444Z,63.70
2022-09-07T21:59:06.509Z,63.70
2022-09-07T22:02:13.946Z,63.70
2022-09-07T22:05:24.145Z,63.70
2022-09-07T22:08:29.639Z,63.70
2022-09-07T22:11:37.126Z,63.70
2022-09-07T22:14:43.329Z,63.70
2022-09-07T22:17:50.626Z,63.70
2022-09-07T22:21:08.228Z,63.70
2022-09-07T22:24:16.372Z,63.70
2022-09-07T22:27:23.728Z,63.80
2022-09-07T22:30:31.227Z,63.80
2022-09-07T22:33:36.692Z,63.80
2022-09-07T22:36:48.166Z,63.80
2022-09-07T22:39:55.700Z,63.80
2022-09-07T22:43:00.965Z,63.80
2022-09-07T22:46:09.275Z,63.80
2022-09-07T22:49:16.141Z,63.80
2022-09-07T22:52:26.577Z,63.80
2022-09-07T22:55:33.953Z,63.80
2022-09-07T22:58:42.105Z,63.80
2022-09-07T23:01:48.157Z,63.80
2022-09-07T23:04:55.975Z,63.80
2022-09-07T23:08:05.510Z,63.80
2022-09-07T23:11:13.225Z,63.80
2022-09-07T23:14:22.490Z,63.80
2022-09-07T23:17:29.700Z,63.80
2022-09-07T23:20:37.005Z,63.80
2022-09-07T23:23:47.309Z,63.80
2022-09-07T23:26:52.894Z,63.80
2022-09-07T23:30:03.182Z,63.80
2022-09-07T23:33:29.522Z,63.80
2022-09-07T23:36:48.032Z,63.80
2022-09-07T23:39:59.036Z,63.80
2022-09-07T23:43:06.511Z,63.80
2022-09-07T23:46:28.424Z,63.80
2022-09-07T23:49:36.302Z,63.80
2022-09-07T23:52:44.431Z,63.90
2022-09-07T23:55:55.545Z,63.80
2022-09-07T23:59:01.845Z,63.80
